Logo AVAMET
Benvolgut visitant, si us plau, ingressa Recuperar contrasenya

Pego Ambra

Dades diàries. Acumulats / Últims 30 dies disponibles

Data Temperatura (°C) Humitat rel. (%) Pressió rel. (hPa) Vent (km/h) Precipitació
Mínima Mitjana Màxima Amplitud
tèrmica
Mínima Mitjana Màxima Mínima Mitjana Màxima Predom. Mitjana Ràfega
màxima
Total
(mm)
Índex-n
Mínima Mitjana Màxima Mínima Mitjana Màxima n
0 a 1
P0 max
mm 5'
Dades mensuals acumulades fins l'últim dia disponible
01/2020 7,9 9,5 12,1 12,1 13,1 15,4 18,7 10,8 31 69 94 1.012 1.026 1.032   2,4 66,6 71,3
Dades anuals acumulades fins l'últim dia disponible
2020 7,9 9,5 12,1 12,1 13,1 15,4 18,7 10,8 31 69 94 1.012 1.026 1.032   2,4 66,6 71,3
Últims 30 dies disponibles
19-01-2020 8,2     11,6     16,2 8,0 54 77 94 1.012 1.015 1.020 SSO 10,0 66,6 58,0
18-01-2020 11,3     14,4     18,0 6,7 46 58 68 1.018 1.025 1.030 OSO 1,8 20,9 0,0
17-01-2020 12,1     16,0     18,7 6,6 31 46 69 1.025 1.027 1.030 O 7,4 38,9 0,0
16-01-2020 11,7     14,5     17,1 5,4 50 64 76 1.024 1.025 1.027 SSE 2,0 27,8 0,0
15-01-2020 10,3     13,6     18,4 8,1 40 51 59 1.021 1.023 1.026 SSO 3,4 27,8 0,0
14-01-2020 9,7     12,2     15,0 5,3 39 51 72 1.019 1.020 1.022 S 1,7 18,5 0,0
13-01-2020 7,9     12,0     16,9 9,0 33 44 59 1.020 1.023 1.028 SSE 1,8 19,3 0,0
12-01-2020 8,0     10,2     13,7 5,7 52 63 77 1.027 1.028 1.029 ESE 1,9 13,0 0,0
11-01-2020 9,1     11,2     13,6 4,5 59 72 81 1.027 1.028 1.030 SSO 1,9 16,7 0,0
10-01-2020 9,8     11,5     14,3 4,5 56 75 91 1.021 1.024 1.027 SO 5,6 40,7 13,0 0,37 1,60
09-01-2020 9,5     11,3     13,8 4,3 68 80 90 1.022 1.026 1.029 SO 1,3 16,7 0,0
08-01-2020 9,8     11,9     15,3 5,5 61 75 89 1.026 1.028 1.030 SSE 1,0 20,9 0,0
07-01-2020 8,6     11,8     14,9 6,3 67 81 90 1.027 1.028 1.030 SSO 0,9 16,7 0,0
06-01-2020 9,3     11,5     14,3 5,0 58 78 89 1.026 1.027 1.029 S 1,5 18,5 0,0
05-01-2020 9,5     12,1     16,3 6,8 54 66 77 1.025 1.027 1.030 SSO 0,4 11,3 0,0
04-01-2020 8,7     11,5     15,3 6,6 54 70 85 1.030 1.031 1.032 SSE 1,3 18,5 0,0
03-01-2020 8,7     10,9     14,0 5,3 76 85 92 1.028 1.029 1.031 SSE 0,9 16,7 0,0
02-01-2020 8,6     10,3     13,1 4,5 80 88 92 1.028 1.030 1.032 S 0,6 9,7 0,3
01-01-2020 8,9     10,7     13,2 4,3 73 81 92 1.029 1.030 1.032 SO 0,9 11,3 0,0
31-12-2019 8,9     10,7     13,2 4,3 75 83 90 1.030 1.031 1.033 ONO 0,6 11,3 0,0
30-12-2019 10,3     11,4     13,8 3,5 74 82 89 1.030 1.031 1.033 NO 0,7 14,8 0,0
29-12-2019 8,4     10,8     14,1 5,7 74 85 90 1.029 1.030 1.032 O 1,1 16,7 0,0
28-12-2019 9,6     12,0     14,8 5,2 72 84 89 1.027 1.028 1.030 SSO 2,0 18,5 0,0
27-12-2019 11,7     14,2     17,6 5,9 60 72 84 1.025 1.027 1.028 SSO 0,6 13,0 0,0
26-12-2019 13,2     17,6     22,0 8,8 30 49 70 1.020 1.023 1.028 OSO 0,9 22,5 0,0
25-12-2019 14,2     16,8     19,8 5,6 46 65 82 1.020 1.021 1.024 OSO 0,6 9,7 0,0
24-12-2019 16,0     19,3     24,2 8,2 38 49 59 1.023 1.024 1.026 S 2,5 25,9 0,0
23-12-2019 14,7     17,8     21,3 6,6 32 46 59 1.018 1.023 1.025 O 6,8 33,8 0,0
22-12-2019 16,8     18,7     20,7 3,9 41 47 54 1.005 1.013 1.018 O 12,8 82,0 0,0
21-12-2019 19,4     22,9     25,8 6,4 34 50 67 998 1.002 1.005 O 18,5 92,5 0,3
Últims 13 mesos disponibles
12/2019 8,4 12,6 19,4 15,1 13,0 18,1 25,8 17,4 39 66 89 1.001 1.017 1.031 O 5,5 103,6 230,8
11/2019 7,9 13,5 22,1 16,3 14,6 19,1 26,7 18,8 35 53 72 997 1.009 1.016 O 8,9 75,9 10,1
10/2019 12,5 17,7 21,6 20,9 16,4 24,3 30,9 18,4 36 66 87 1.007 1.014 1.020 SSO 3,9 55,5 101,6
09/2019 14,8 20,7 23,8 23,7 22,0 27,3 34,3 19,5 43 75 94 1.008 1.015 1.021 SSO 4,6 55,5 237,1
08/2019 18,9 23,0 26,4 26,8 26,6 31,4 39,3 20,4 45 69 82 1.008 1.013 1.017 SSO 5,1 51,8 181,3
07/2019 21,4 23,3 26,3 27,1 27,3 31,5 39,7 18,3 41 64 82 1.003 1.011 1.019 SSE 5,7 59,5 2,1
06/2019 16,2 19,2 24,1 23,6 22,2 28,7 36,6 20,4 36 60 82 1.006 1.013 1.019 S 5,8 50,0 0,0
05/2019 10,8 15,5 22,1 19,5 18,1 23,8 31,1 20,3 46 64 82 1.008 1.014 1.022 S 5,9 43,4 14,2
04/2019 9,8 12,7 15,3 15,9 13,8 19,5 28,5 18,7 32 66 94 998 1.011 1.023 SO 7,9 56,3 342,5
03/2019 7,8 11,7 19,0 15,4 13,1 19,4 27,6 19,8 33 56 94 1.008 1.021 1.028 S 5,5 53,7 108,5
02/2019 5,9 9,9 14,0 13,5 12,6 17,0 22,8 16,9 34 59 82 993 1.023 1.032 S 5,3 82,0 0,0
01/2019 4,3 9,8 14,8 12,8 10,9 16,1 20,6 16,3 33 53 80 1.001 1.017 1.029 SO 6,5 74,0 4,2
12/2018 8,6 11,8 15,8 14,9 12,7 18,6 23,9 15,3 42 63 89 1.007 1.023 1.029 SO 3,9 61,1 39,2
Tots els anys disponibles
2019 4,3 15,8 26,4 19,2 10,9 23,0 39,7 35,4 32 63 94 993 1.015 1.032 S 5,9 103,6 1.232,4
2018 4,2 16,1 27,4 19,2 7,8 22,9 37,1 32,9 29 63 94 991 1.014 1.033 S 5,5 87,0 790,1
2017 0,9 15,9 27,0 19,4 8,8 22,9 37,9 37,0 55 64 72 1.013 1.017 1.021 91,0 928,0
2016 5,8 16,1 28,1 19,6 12,2 23,0 41,1 35,3 55 63 78 1.012 1.016 1.025 95,0 726,4
2015 3,0 16,0 22,5 19,5 21,2 23,1 41,6 38,6 54 64 75 1.013 1.018 1.029 95,0 907,0
2014 0,9 14,2 26,0 19,1 9,4 24,0 39,1 38,2 31 62 98 993 1.015 1.032 86,0 347,1
2013 1,5 13,5 16,6 18,2 18,5 22,8 37,4 35,9 50 63 73 1.004 1.014 1.022 114,0 846,0
2012 -1,7 13,6 19,3 18,3 21,5 23,4 41,4 43,1 51 64 76 1.008 1.015 1.021 4,3 74,0 984,2
2011 -0,7 13,7 23,5 17,7 5,4 22,7 37,7 38,4 38 72 98 803 1.015 1.032 4,7 93,0 1.174,0
2010 -0,1 15,7 27,7 19,9 9,3 24,2 40,1 40,2 33 67 98 989 1.010 1.026 5,2 76,0 814,7
Temperatura (°C)
Humitat relativa (%)
Velocitat del vent i ràfega màxima (km/h)
Direcció del vent (°)
Pressió (hPa)
Precipitació (mm)
Nota sobre les dades: s'avisa a l'usuari de la provisionalitat i no oficialitat d'aquestes dades
Logo AVAMET blanc
Web allotjada a Sollutia
Llicència de Creative CommonsLa web d'AVAMET i els seus continguts estan subjectes a una llicència de
Reconeixement - No Comercial - Compartir igual
Últimes estacions: Xixona - Els Ameradors (Soci), Agres - El Tossal (Soci), Xàbia - Bevenguts (MeteoXàbia), Llíria (Aj. Soci/Inforatge), Orihuela - Lo Capitán, Cox & Guardamar del Segura - horta (Meteorihuela), l'Alcúdia - Carriona & el Real de Gandia (Inforatge), Benicàssim - les Vil·les (Soci),  l'Alfàs del Pi - l'Albir (Soci), - - -